sensor_id;sensor_type;location;lat;lon;timestamp;temperature;humidity
45012;DHT22;63444;48.148;11.542;2023-02-15T00:01:34;3.40;99.90
45012;DHT22;63444;48.148;11.542;2023-02-15T00:04:00;3.30;99.90
45012;DHT22;63444;48.148;11.542;2023-02-15T00:06:28;3.30;99.90
45012;DHT22;63444;48.148;11.542;2023-02-15T00:08:55;3.30;99.90
45012;DHT22;63444;48.148;11.542;2023-02-15T00:11:21;3.30;99.90
45012;DHT22;63444;48.148;11.542;2023-02-15T00:14:06;3.30;99.90
45012;DHT22;63444;48.148;11.542;2023-02-15T00:16:32;3.30;99.90
45012;DHT22;63444;48.148;11.542;2023-02-15T00:18:58;3.30;99.90
45012;DHT22;63444;48.148;11.542;2023-02-15T00:21:29;3.30;99.90
45012;DHT22;63444;48.148;11.542;2023-02-15T00:23:58;3.20;99.90
45012;DHT22;63444;48.148;11.542;2023-02-15T00:26:25;3.20;99.90
45012;DHT22;63444;48.148;11.542;2023-02-15T00:28:51;3.20;99.90
45012;DHT22;63444;48.148;11.542;2023-02-15T00:31:18;3.20;99.90
45012;DHT22;63444;48.148;11.542;2023-02-15T00:33:43;3.10;99.90
45012;DHT22;63444;48.148;11.542;2023-02-15T00:36:10;3.10;99.90
45012;DHT22;63444;48.148;11.542;2023-02-15T00:38:36;3.10;99.90
45012;DHT22;63444;48.148;11.542;2023-02-15T00:41:04;3.10;99.90
45012;DHT22;63444;48.148;11.542;2023-02-15T00:43:31;3.20;99.90
45012;DHT22;63444;48.148;11.542;2023-02-15T00:45:58;3.10;99.90
45012;DHT22;63444;48.148;11.542;2023-02-15T00:48:24;3.10;99.90
45012;DHT22;63444;48.148;11.542;2023-02-15T00:50:53;3.10;99.90
45012;DHT22;63444;48.148;11.542;2023-02-15T00:53:20;3.00;99.90
45012;DHT22;63444;48.148;11.542;2023-02-15T00:55:46;3.00;99.90
45012;DHT22;63444;48.148;11.542;2023-02-15T00:58:13;2.90;99.90
45012;DHT22;63444;48.148;11.542;2023-02-15T01:00:40;2.90;99.90
45012;DHT22;63444;48.148;11.542;2023-02-15T01:03:07;2.80;99.90
45012;DHT22;63444;48.148;11.542;2023-02-15T01:05:32;2.80;99.90
45012;DHT22;63444;48.148;11.542;2023-02-15T01:07:59;2.80;99.90
45012;DHT22;63444;48.148;11.542;2023-02-15T01:10:26;2.80;99.90
45012;DHT22;63444;48.148;11.542;2023-02-15T01:12:52;2.80;99.90
45012;DHT22;63444;48.148;11.542;2023-02-15T01:15:18;2.80;99.90
45012;DHT22;63444;48.148;11.542;2023-02-15T01:17:45;2.80;99.90
45012;DHT22;63444;48.148;11.542;2023-02-15T01:20:17;2.70;99.90
45012;DHT22;63444;48.148;11.542;2023-02-15T01:22:43;2.70;99.90
45012;DHT22;63444;48.148;11.542;2023-02-15T01:25:08;2.70;99.90
45012;DHT22;63444;48.148;11.542;2023-02-15T01:27:34;2.60;99.90
45012;DHT22;63444;48.148;11.542;2023-02-15T01:30:00;2.50;99.90
45012;DHT22;63444;48.148;11.542;2023-02-15T01:32:25;2.50;99.90
45012;DHT22;63444;48.148;11.542;2023-02-15T01:34:52;2.40;99.90
45012;DHT22;63444;48.148;11.542;2023-02-15T01:37:18;2.40;99.90
45012;DHT22;63444;48.148;11.542;2023-02-15T01:39:44;2.50;99.90
45012;DHT22;63444;48.148;11.542;2023-02-15T01:42:21;2.40;99.90
45012;DHT22;63444;48.148;11.542;2023-02-15T01:44:55;2.40;99.90
45012;DHT22;63444;48.148;11.542;2023-02-15T01:47:39;2.40;99.90
45012;DHT22;63444;48.148;11.542;2023-02-15T01:53:06;2.40;99.90
45012;DHT22;63444;48.148;11.542;2023-02-15T01:55:42;2.30;99.90
45012;DHT22;63444;48.148;11.542;2023-02-15T01:58:08;2.30;99.90
45012;DHT22;63444;48.148;11.542;2023-02-15T02:00:34;2.30;99.90
45012;DHT22;63444;48.148;11.542;2023-02-15T02:03:01;2.30;99.90
45012;DHT22;63444;48.148;11.542;2023-02-15T02:05:29;2.20;99.90
45012;DHT22;63444;48.148;11.542;2023-02-15T02:07:57;2.30;99.90
45012;DHT22;63444;48.148;11.542;2023-02-15T02:10:24;2.20;99.90
45012;DHT22;63444;48.148;11.542;2023-02-15T02:12:57;2.30;99.90
45012;DHT22;63444;48.148;11.542;2023-02-15T02:15:32;2.30;99.90
45012;DHT22;63444;48.148;11.542;2023-02-15T02:26:17;2.20;99.90
45012;DHT22;63444;48.148;11.542;2023-02-15T02:29:17;2.20;99.90
45012;DHT22;63444;48.148;11.542;2023-02-15T02:34:55;2.00;99.90
45012;DHT22;63444;48.148;11.542;2023-02-15T02:37:30;2.10;99.90
45012;DHT22;63444;48.148;11.542;2023-02-15T02:40:52;2.10;99.90
45012;DHT22;63444;48.148;11.542;2023-02-15T02:43:11;2.10;99.90
45012;DHT22;63444;48.148;11.542;2023-02-15T02:48:13;2.20;99.90
45012;DHT22;63444;48.148;11.542;2023-02-15T02:50:39;2.10;99.90
45012;DHT22;63444;48.148;11.542;2023-02-15T02:53:06;2.20;99.90
45012;DHT22;63444;48.148;11.542;2023-02-15T02:55:48;2.20;99.90
45012;DHT22;63444;48.148;11.542;2023-02-15T02:58:20;2.20;99.90
45012;DHT22;63444;48.148;11.542;2023-02-15T03:01:10;2.20;99.90
45012;DHT22;63444;48.148;11.542;2023-02-15T03:03:43;2.20;99.90
45012;DHT22;63444;48.148;11.542;2023-02-15T03:06:14;2.20;99.90
45012;DHT22;63444;48.148;11.542;2023-02-15T03:08:47;2.20;99.90
45012;DHT22;63444;48.148;11.542;2023-02-15T03:11:14;2.20;99.90
45012;DHT22;63444;48.148;11.542;2023-02-15T03:13:41;2.20;99.90
45012;DHT22;63444;48.148;11.542;2023-02-15T03:16:09;2.30;99.90
45012;DHT22;63444;48.148;11.542;2023-02-15T03:19:17;2.30;99.90
45012;DHT22;63444;48.148;11.542;2023-02-15T03:21:56;2.20;99.90
45012;DHT22;63444;48.148;11.542;2023-02-15T03:24:34;2.20;99.90
45012;DHT22;63444;48.148;11.542;2023-02-15T03:27:03;2.20;99.90
45012;DHT22;63444;48.148;11.542;2023-02-15T03:29:31;2.20;99.90
45012;DHT22;63444;48.148;11.542;2023-02-15T03:32:01;2.20;99.90
45012;DHT22;63444;48.148;11.542;2023-02-15T03:34:27;2.10;99.90
45012;DHT22;63444;48.148;11.542;2023-02-15T03:37:03;2.10;99.90
45012;DHT22;63444;48.148;11.542;2023-02-15T03:39:49;2.00;99.90
45012;DHT22;63444;48.148;11.542;2023-02-15T03:42:22;1.90;99.90
45012;DHT22;63444;48.148;11.542;2023-02-15T03:44:58;1.80;99.90
45012;DHT22;63444;48.148;11.542;2023-02-15T03:47:31;1.80;99.90
45012;DHT22;63444;48.148;11.542;2023-02-15T03:50:20;1.80;99.90
45012;DHT22;63444;48.148;11.542;2023-02-15T03:53:09;1.90;99.90
45012;DHT22;63444;48.148;11.542;2023-02-15T03:55:35;1.90;99.90
45012;DHT22;63444;48.148;11.542;2023-02-15T03:58:02;2.00;99.90
45012;DHT22;63444;48.148;11.542;2023-02-15T04:00:55;2.00;99.90
45012;DHT22;63444;48.148;11.542;2023-02-15T04:04:06;2.00;99.90
45012;DHT22;63444;48.148;11.542;2023-02-15T04:06:34;2.00;99.90
45012;DHT22;63444;48.148;11.542;2023-02-15T04:09:00;2.00;99.90
45012;DHT22;63444;48.148;11.542;2023-02-15T04:11:45;2.00;99.90
45012;DHT22;63444;48.148;11.542;2023-02-15T04:14:10;2.00;99.90
45012;DHT22;63444;48.148;11.542;2023-02-15T04:16:54;2.00;99.90
45012;DHT22;63444;48.148;11.542;2023-02-15T04:19:20;2.10;99.90
45012;DHT22;63444;48.148;11.542;2023-02-15T04:22:04;2.10;99.90
45012;DHT22;63444;48.148;11.542;2023-02-15T04:24:48;2.10;99.90
45012;DHT22;63444;48.148;11.542;2023-02-15T04:27:33;2.10;99.90
45012;DHT22;63444;48.148;11.542;2023-02-15T04:29:59;2.00;99.90
45012;DHT22;63444;48.148;11.542;2023-02-15T04:32:24;2.00;99.90
45012;DHT22;63444;48.148;11.542;2023-02-15T04:34:50;2.00;99.90
45012;DHT22;63444;48.148;11.542;2023-02-15T04:37:16;1.90;99.90
45012;DHT22;63444;48.148;11.542;2023-02-15T04:39:42;1.80;99.90
45012;DHT22;63444;48.148;11.542;2023-02-15T04:42:08;1.80;99.90
45012;DHT22;63444;48.148;11.542;2023-02-15T04:44:33;1.80;99.90
45012;DHT22;63444;48.148;11.542;2023-02-15T04:46:59;1.80;99.90
45012;DHT22;63444;48.148;11.542;2023-02-15T04:49:24;1.80;99.90
45012;DHT22;63444;48.148;11.542;2023-02-15T04:51:50;1.80;99.90
45012;DHT22;63444;48.148;11.542;2023-02-15T04:54:15;1.80;99.90
45012;DHT22;63444;48.148;11.542;2023-02-15T04:56:42;1.80;99.90
45012;DHT22;63444;48.148;11.542;2023-02-15T04:59:12;1.70;99.90
45012;DHT22;63444;48.148;11.542;2023-02-15T05:01:38;1.70;99.90
45012;DHT22;63444;48.148;11.542;2023-02-15T05:04:04;1.60;99.90
45012;DHT22;63444;48.148;11.542;2023-02-15T05:06:29;1.50;99.90
45012;DHT22;63444;48.148;11.542;2023-02-15T05:08:55;1.60;99.90
45012;DHT22;63444;48.148;11.542;2023-02-15T05:11:21;1.70;99.90
45012;DHT22;63444;48.148;11.542;2023-02-15T05:13:47;1.70;99.90
45012;DHT22;63444;48.148;11.542;2023-02-15T05:16:14;1.70;99.90
45012;DHT22;63444;48.148;11.542;2023-02-15T05:18:39;1.70;99.90
45012;DHT22;63444;48.148;11.542;2023-02-15T05:21:05;1.70;99.90
45012;DHT22;63444;48.148;11.542;2023-02-15T05:23:30;1.70;99.90
45012;DHT22;63444;48.148;11.542;2023-02-15T05:25:56;1.70;99.90
45012;DHT22;63444;48.148;11.542;2023-02-15T05:28:40;1.60;99.90
45012;DHT22;63444;48.148;11.542;2023-02-15T05:31:16;1.60;99.90
45012;DHT22;63444;48.148;11.542;2023-02-15T05:33:43;1.50;99.90
45012;DHT22;63444;48.148;11.542;2023-02-15T05:36:09;1.60;99.90
45012;DHT22;63444;48.148;11.542;2023-02-15T05:38:35;1.50;99.90
45012;DHT22;63444;48.148;11.542;2023-02-15T05:41:05;1.50;99.90
45012;DHT22;63444;48.148;11.542;2023-02-15T05:43:31;1.50;99.90
45012;DHT22;63444;48.148;11.542;2023-02-15T05:45:57;1.50;99.90
45012;DHT22;63444;48.148;11.542;2023-02-15T05:48:26;1.50;99.90
45012;DHT22;63444;48.148;11.542;2023-02-15T05:53:28;1.60;99.90
45012;DHT22;63444;48.148;11.542;2023-02-15T05:55:54;1.60;99.90
45012;DHT22;63444;48.148;11.542;2023-02-15T05:58:26;1.70;99.90
45012;DHT22;63444;48.148;11.542;2023-02-15T06:00:53;1.70;99.90
45012;DHT22;63444;48.148;11.542;2023-02-15T06:03:19;1.60;99.90
45012;DHT22;63444;48.148;11.542;2023-02-15T06:05:45;1.50;99.90
45012;DHT22;63444;48.148;11.542;2023-02-15T06:08:11;1.40;99.90
45012;DHT22;63444;48.148;11.542;2023-02-15T06:10:36;1.40;99.90
45012;DHT22;63444;48.148;11.542;2023-02-15T06:13:02;1.40;99.90
45012;DHT22;63444;48.148;11.542;2023-02-15T06:15:27;1.40;99.90
45012;DHT22;63444;48.148;11.542;2023-02-15T06:17:53;1.50;99.90
45012;DHT22;63444;48.148;11.542;2023-02-15T06:20:19;1.30;99.90
45012;DHT22;63444;48.148;11.542;2023-02-15T06:22:44;1.30;99.90
45012;DHT22;63444;48.148;11.542;2023-02-15T06:25:10;1.30;99.90
45012;DHT22;63444;48.148;11.542;2023-02-15T06:27:36;1.30;99.90
45012;DHT22;63444;48.148;11.542;2023-02-15T06:30:06;1.30;99.90
45012;DHT22;63444;48.148;11.542;2023-02-15T06:32:32;1.30;99.90
45012;DHT22;63444;48.148;11.542;2023-02-15T06:34:59;1.30;99.90
45012;DHT22;63444;48.148;11.542;2023-02-15T06:37:24;1.30;99.90
45012;DHT22;63444;48.148;11.542;2023-02-15T06:39:50;1.40;99.90
45012;DHT22;63444;48.148;11.542;2023-02-15T06:42:16;1.40;99.90
45012;DHT22;63444;48.148;11.542;2023-02-15T06:44:43;1.40;99.90
45012;DHT22;63444;48.148;11.542;2023-02-15T06:47:09;1.40;99.90
45012;DHT22;63444;48.148;11.542;2023-02-15T06:49:34;1.30;99.90
45012;DHT22;63444;48.148;11.542;2023-02-15T06:52:00;1.30;99.90
45012;DHT22;63444;48.148;11.542;2023-02-15T06:54:25;1.30;99.90
45012;DHT22;63444;48.148;11.542;2023-02-15T06:56:51;1.40;99.90
45012;DHT22;63444;48.148;11.542;2023-02-15T06:59:16;1.40;99.90
45012;DHT22;63444;48.148;11.542;2023-02-15T07:01:42;1.40;99.90
45012;DHT22;63444;48.148;11.542;2023-02-15T07:04:09;1.40;99.90
45012;DHT22;63444;48.148;11.542;2023-02-15T07:06:35;1.50;99.90
45012;DHT22;63444;48.148;11.542;2023-02-15T07:09:01;1.50;99.90
45012;DHT22;63444;48.148;11.542;2023-02-15T07:11:27;1.50;99.90
45012;DHT22;63444;48.148;11.542;2023-02-15T07:14:11;1.50;99.90
45012;DHT22;63444;48.148;11.542;2023-02-15T07:16:38;1.50;99.90
45012;DHT22;63444;48.148;11.542;2023-02-15T07:19:05;1.50;99.90
45012;DHT22;63444;48.148;11.542;2023-02-15T07:21:33;1.50;99.90
45012;DHT22;63444;48.148;11.542;2023-02-15T07:23:58;1.60;99.90
45012;DHT22;63444;48.148;11.542;2023-02-15T07:26:25;1.60;99.90
45012;DHT22;63444;48.148;11.542;2023-02-15T07:28:51;1.50;99.90
45012;DHT22;63444;48.148;11.542;2023-02-15T07:31:17;1.50;99.90
45012;DHT22;63444;48.148;11.542;2023-02-15T07:33:42;1.50;99.90
45012;DHT22;63444;48.148;11.542;2023-02-15T07:36:09;1.50;99.90
45012;DHT22;63444;48.148;11.542;2023-02-15T07:38:39;1.50;99.90
45012;DHT22;63444;48.148;11.542;2023-02-15T07:41:08;1.60;99.90
45012;DHT22;63444;48.148;11.542;2023-02-15T07:43:37;1.60;99.90
45012;DHT22;63444;48.148;11.542;2023-02-15T07:46:05;1.60;99.90
45012;DHT22;63444;48.148;11.542;2023-02-15T07:48:31;1.70;99.90
45012;DHT22;63444;48.148;11.542;2023-02-15T07:51:05;1.70;99.90
45012;DHT22;63444;48.148;11.542;2023-02-15T07:53:31;1.70;99.90
45012;DHT22;63444;48.148;11.542;2023-02-15T07:56:01;1.80;99.90
45012;DHT22;63444;48.148;11.542;2023-02-15T07:58:26;1.80;99.90
45012;DHT22;63444;48.148;11.542;2023-02-15T08:01:13;1.90;99.90
45012;DHT22;63444;48.148;11.542;2023-02-15T08:03:40;1.80;99.90
45012;DHT22;63444;48.148;11.542;2023-02-15T08:06:06;1.80;99.90
45012;DHT22;63444;48.148;11.542;2023-02-15T08:08:34;1.80;99.90
45012;DHT22;63444;48.148;11.542;2023-02-15T08:11:23;1.80;99.90
45012;DHT22;63444;48.148;11.542;2023-02-15T08:14:07;1.90;99.90
45012;DHT22;63444;48.148;11.542;2023-02-15T08:16:55;2.00;99.90
45012;DHT22;63444;48.148;11.542;2023-02-15T08:19:26;2.00;99.90
45012;DHT22;63444;48.148;11.542;2023-02-15T08:21:54;2.00;99.90
45012;DHT22;63444;48.148;11.542;2023-02-15T08:24:23;2.10;99.90
45012;DHT22;63444;48.148;11.542;2023-02-15T08:26:50;2.10;99.90
45012;DHT22;63444;48.148;11.542;2023-02-15T08:29:18;2.20;99.90
45012;DHT22;63444;48.148;11.542;2023-02-15T08:31:44;2.20;99.90
45012;DHT22;63444;48.148;11.542;2023-02-15T08:34:14;2.40;99.90
45012;DHT22;63444;48.148;11.542;2023-02-15T08:36:40;2.50;99.90
45012;DHT22;63444;48.148;11.542;2023-02-15T08:39:07;2.70;99.90
45012;DHT22;63444;48.148;11.542;2023-02-15T08:41:36;2.80;99.90
45012;DHT22;63444;48.148;11.542;2023-02-15T08:44:06;2.90;99.90
45012;DHT22;63444;48.148;11.542;2023-02-15T08:46:34;3.00;99.90
45012;DHT22;63444;48.148;11.542;2023-02-15T08:49:02;3.10;99.90
45012;DHT22;63444;48.148;11.542;2023-02-15T08:51:31;3.20;99.90
45012;DHT22;63444;48.148;11.542;2023-02-15T08:53:59;3.20;99.90
45012;DHT22;63444;48.148;11.542;2023-02-15T08:56:27;3.20;99.90
45012;DHT22;63444;48.148;11.542;2023-02-15T08:58:53;3.20;99.90
45012;DHT22;63444;48.148;11.542;2023-02-15T09:01:23;3.20;99.90
45012;DHT22;63444;48.148;11.542;2023-02-15T09:03:51;3.10;99.90
45012;DHT22;63444;48.148;11.542;2023-02-15T09:06:20;3.10;99.90
45012;DHT22;63444;48.148;11.542;2023-02-15T09:08:46;3.10;99.90
45012;DHT22;63444;48.148;11.542;2023-02-15T09:11:28;3.20;99.90
45012;DHT22;63444;48.148;11.542;2023-02-15T09:14:01;3.30;99.90
45012;DHT22;63444;48.148;11.542;2023-02-15T09:16:30;3.50;99.90
45012;DHT22;63444;48.148;11.542;2023-02-15T09:18:56;4.20;99.90
45012;DHT22;63444;48.148;11.542;2023-02-15T09:21:36;5.00;99.90
45012;DHT22;63444;48.148;11.542;2023-02-15T09:24:07;6.10;99.90
45012;DHT22;63444;48.148;11.542;2023-02-15T09:26:35;7.00;99.90
45012;DHT22;63444;48.148;11.542;2023-02-15T09:29:02;7.90;99.90
45012;DHT22;63444;48.148;11.542;2023-02-15T09:31:31;8.70;99.90
45012;DHT22;63444;48.148;11.542;2023-02-15T09:33:59;9.40;99.90
45012;DHT22;63444;48.148;11.542;2023-02-15T09:36:38;10.10;97.80
45012;DHT22;63444;48.148;11.542;2023-02-15T09:39:15;10.10;97.10
45012;DHT22;63444;48.148;11.542;2023-02-15T09:45:08;11.20;94.80
45012;DHT22;63444;48.148;11.542;2023-02-15T09:56:30;13.00;89.80
45012;DHT22;63444;48.148;11.542;2023-02-15T10:26:45;17.80;71.90
45012;DHT22;63444;48.148;11.542;2023-02-15T10:30:15;18.40;70.70
45012;DHT22;63444;48.148;11.542;2023-02-15T10:32:22;19.10;69.20
45012;DHT22;63444;48.148;11.542;2023-02-15T10:37:42;21.40;64.40
45012;DHT22;63444;48.148;11.542;2023-02-15T10:43:49;24.40;59.20
45012;DHT22;63444;48.148;11.542;2023-02-15T10:49:10;27.40;51.70
45012;DHT22;63444;48.148;11.542;2023-02-15T11:00:35;31.90;43.50
45012;DHT22;63444;48.148;11.542;2023-02-15T11:08:32;34.40;35.70
45012;DHT22;63444;48.148;11.542;2023-02-15T11:11:03;34.80;35.00
45012;DHT22;63444;48.148;11.542;2023-02-15T11:13:38;34.90;34.60
45012;DHT22;63444;48.148;11.542;2023-02-15T11:16:14;35.00;34.00
45012;DHT22;63444;48.148;11.542;2023-02-15T11:18:54;34.80;33.80
45012;DHT22;63444;48.148;11.542;2023-02-15T11:21:33;34.40;33.60
45012;DHT22;63444;48.148;11.542;2023-02-15T11:24:10;34.40;33.20
45012;DHT22;63444;48.148;11.542;2023-02-15T11:26:49;34.60;33.00
45012;DHT22;63444;48.148;11.542;2023-02-15T11:32:19;34.80;32.50
45012;DHT22;63444;48.148;11.542;2023-02-15T11:35:10;34.80;31.90
45012;DHT22;63444;48.148;11.542;2023-02-15T11:37:46;35.00;32.10
45012;DHT22;63444;48.148;11.542;2023-02-15T11:40:25;35.20;31.80
45012;DHT22;63444;48.148;11.542;2023-02-15T11:42:53;35.40;31.40
45012;DHT22;63444;48.148;11.542;2023-02-15T11:45:31;35.50;31.20
45012;DHT22;63444;48.148;11.542;2023-02-15T11:47:58;35.60;30.80
45012;DHT22;63444;48.148;11.542;2023-02-15T11:50:29;35.90;30.50
45012;DHT22;63444;48.148;11.542;2023-02-15T11:53:11;36.10;30.40
45012;DHT22;63444;48.148;11.542;2023-02-15T11:55:37;36.20;29.90
45012;DHT22;63444;48.148;11.542;2023-02-15T12:01:07;36.20;29.90
45012;DHT22;63444;48.148;11.542;2023-02-15T12:03:54;35.80;29.90
45012;DHT22;63444;48.148;11.542;2023-02-15T12:06:26;35.30;30.90
45012;DHT22;63444;48.148;11.542;2023-02-15T12:11:35;33.60;31.20
45012;DHT22;63444;48.148;11.542;2023-02-15T12:14:04;32.50;32.00
45012;DHT22;63444;48.148;11.542;2023-02-15T12:21:49;29.30;35.50
45012;DHT22;63444;48.148;11.542;2023-02-15T12:26:44;27.10;37.90
45012;DHT22;63444;48.148;11.542;2023-02-15T12:29:16;25.70;39.50
45012;DHT22;63444;48.148;11.542;2023-02-15T12:31:47;24.50;41.20
45012;DHT22;63444;48.148;11.542;2023-02-15T12:34:23;23.50;42.90
45012;DHT22;63444;48.148;11.542;2023-02-15T12:36:53;22.70;44.30
45012;DHT22;63444;48.148;11.542;2023-02-15T12:39:32;21.90;45.60
45012;DHT22;63444;48.148;11.542;2023-02-15T12:42:04;21.10;46.80
45012;DHT22;63444;48.148;11.542;2023-02-15T12:44:35;20.40;48.10
45012;DHT22;63444;48.148;11.542;2023-02-15T12:47:20;19.90;49.30
45012;DHT22;63444;48.148;11.542;2023-02-15T12:50:16;19.30;50.20
45012;DHT22;63444;48.148;11.542;2023-02-15T12:52:48;18.80;51.20
45012;DHT22;63444;48.148;11.542;2023-02-15T12:55:26;18.50;52.20
45012;DHT22;63444;48.148;11.542;2023-02-15T13:00:42;17.80;53.50
45012;DHT22;63444;48.148;11.542;2023-02-15T13:03:20;17.50;54.40
45012;DHT22;63444;48.148;11.542;2023-02-15T13:05:53;17.30;55.50
45012;DHT22;63444;48.148;11.542;2023-02-15T13:08:45;17.00;56.20
45012;DHT22;63444;48.148;11.542;2023-02-15T13:11:12;16.80;56.90
45012;DHT22;63444;48.148;11.542;2023-02-15T13:13:58;16.50;57.50
45012;DHT22;63444;48.148;11.542;2023-02-15T13:16:36;16.30;58.50
45012;DHT22;63444;48.148;11.542;2023-02-15T13:19:22;16.10;58.70
45012;DHT22;63444;48.148;11.542;2023-02-15T13:21:52;15.90;59.50
45012;DHT22;63444;48.148;11.542;2023-02-15T13:24:25;15.70;60.20
45012;DHT22;63444;48.148;11.542;2023-02-15T13:26:54;15.50;60.80
45012;DHT22;63444;48.148;11.542;2023-02-15T13:29:26;15.50;61.40
45012;DHT22;63444;48.148;11.542;2023-02-15T13:31:54;15.40;62.10
45012;DHT22;63444;48.148;11.542;2023-02-15T13:34:31;15.30;62.00
45012;DHT22;63444;48.148;11.542;2023-02-15T13:37:18;15.20;62.60
45012;DHT22;63444;48.148;11.542;2023-02-15T13:39:51;15.00;62.90
45012;DHT22;63444;48.148;11.542;2023-02-15T13:42:37;14.90;63.80
45012;DHT22;63444;48.148;11.542;2023-02-15T13:51:00;14.50;65.40
45012;DHT22;63444;48.148;11.542;2023-02-15T14:02:23;14.10;67.70
45012;DHT22;63444;48.148;11.542;2023-02-15T14:04:54;14.10;68.40
45012;DHT22;63444;48.148;11.542;2023-02-15T14:07:39;14.00;69.00
45012;DHT22;63444;48.148;11.542;2023-02-15T14:16:06;13.80;70.00
45012;DHT22;63444;48.148;11.542;2023-02-15T14:18:42;13.60;70.60
45012;DHT22;63444;48.148;11.542;2023-02-15T14:21:26;13.50;71.10
45012;DHT22;63444;48.148;11.542;2023-02-15T14:24:18;13.40;71.50
45012;DHT22;63444;48.148;11.542;2023-02-15T14:27:24;13.40;71.70
45012;DHT22;63444;48.148;11.542;2023-02-15T14:29:56;13.30;72.00
45012;DHT22;63444;48.148;11.542;2023-02-15T14:35:00;13.10;72.70
45012;DHT22;63444;48.148;11.542;2023-02-15T14:37:39;13.10;73.10
45012;DHT22;63444;48.148;11.542;2023-02-15T14:49:03;12.90;74.40
45012;DHT22;63444;48.148;11.542;2023-02-15T14:54:09;12.80;75.20
45012;DHT22;63444;48.148;11.542;2023-02-15T14:56:37;12.70;75.50
45012;DHT22;63444;48.148;11.542;2023-02-15T14:59:23;12.70;76.00
45012;DHT22;63444;48.148;11.542;2023-02-15T15:01:54;12.50;76.20
45012;DHT22;63444;48.148;11.542;2023-02-15T15:07:48;12.40;77.00
45012;DHT22;63444;48.148;11.542;2023-02-15T15:15:44;12.30;77.80
45012;DHT22;63444;48.148;11.542;2023-02-15T15:18:43;12.30;78.00
45012;DHT22;63444;48.148;11.542;2023-02-15T15:21:09;12.30;78.30
45012;DHT22;63444;48.148;11.542;2023-02-15T15:23:41;12.30;78.50
45012;DHT22;63444;48.148;11.542;2023-02-15T15:26:27;12.20;78.70
45012;DHT22;63444;48.148;11.542;2023-02-15T15:28:54;12.10;78.90
45012;DHT22;63444;48.148;11.542;2023-02-15T15:31:48;12.10;79.20
45012;DHT22;63444;48.148;11.542;2023-02-15T15:34:41;12.00;79.40
45012;DHT22;63444;48.148;11.542;2023-02-15T15:37:30;12.00;79.60
45012;DHT22;63444;48.148;11.542;2023-02-15T15:40:30;11.90;80.00
45012;DHT22;63444;48.148;11.542;2023-02-15T15:48:48;11.70;80.60
45012;DHT22;63444;48.148;11.542;2023-02-15T15:51:26;11.70;80.90
45012;DHT22;63444;48.148;11.542;2023-02-15T15:53:54;11.60;81.00
45012;DHT22;63444;48.148;11.542;2023-02-15T15:56:24;11.50;81.20
45012;DHT22;63444;48.148;11.542;2023-02-15T15:59:05;11.50;81.40
45012;DHT22;63444;48.148;11.542;2023-02-15T16:01:44;11.40;81.60
45012;DHT22;63444;48.148;11.542;2023-02-15T16:04:26;11.30;82.00
45012;DHT22;63444;48.148;11.542;2023-02-15T16:06:52;11.10;82.20
45012;DHT22;63444;48.148;11.542;2023-02-15T16:09:21;11.00;82.70
45012;DHT22;63444;48.148;11.542;2023-02-15T16:11:57;10.90;83.00
45012;DHT22;63444;48.148;11.542;2023-02-15T16:14:31;10.80;83.40
45012;DHT22;63444;48.148;11.542;2023-02-15T16:17:01;10.70;83.80
45012;DHT22;63444;48.148;11.542;2023-02-15T16:19:31;10.60;84.10
45012;DHT22;63444;48.148;11.542;2023-02-15T16:21:59;10.50;84.30
45012;DHT22;63444;48.148;11.542;2023-02-15T16:29:54;10.20;85.20
45012;DHT22;63444;48.148;11.542;2023-02-15T16:32:25;10.10;85.60
45012;DHT22;63444;48.148;11.542;2023-02-15T16:35:00;10.00;86.00
45012;DHT22;63444;48.148;11.542;2023-02-15T16:37:33;9.90;87.50
45012;DHT22;63444;48.148;11.542;2023-02-15T16:39:59;9.80;87.70
45012;DHT22;63444;48.148;11.542;2023-02-15T16:42:25;9.70;88.00
45012;DHT22;63444;48.148;11.542;2023-02-15T16:45:04;9.60;88.40
45012;DHT22;63444;48.148;11.542;2023-02-15T16:47:35;9.30;89.00
45012;DHT22;63444;48.148;11.542;2023-02-15T16:50:02;9.20;89.50
45012;DHT22;63444;48.148;11.542;2023-02-15T16:52:29;9.10;89.80
45012;DHT22;63444;48.148;11.542;2023-02-15T16:55:00;9.10;90.00
45012;DHT22;63444;48.148;11.542;2023-02-15T16:57:32;9.10;90.20
45012;DHT22;63444;48.148;11.542;2023-02-15T17:00:05;8.90;90.20
45012;DHT22;63444;48.148;11.542;2023-02-15T17:02:33;8.90;90.30
45012;DHT22;63444;48.148;11.542;2023-02-15T17:08:06;8.70;90.60
45012;DHT22;63444;48.148;11.542;2023-02-15T17:10:38;8.60;90.70
45012;DHT22;63444;48.148;11.542;2023-02-15T17:13:17;8.50;90.80
45012;DHT22;63444;48.148;11.542;2023-02-15T17:16:07;8.40;91.10
45012;DHT22;63444;48.148;11.542;2023-02-15T17:21:17;8.30;91.50
45012;DHT22;63444;48.148;11.542;2023-02-15T17:23:46;8.20;91.70
45012;DHT22;63444;48.148;11.542;2023-02-15T17:26:22;8.20;92.10
45012;DHT22;63444;48.148;11.542;2023-02-15T17:28:55;8.10;92.20
45012;DHT22;63444;48.148;11.542;2023-02-15T17:31:24;8.10;92.40
45012;DHT22;63444;48.148;11.542;2023-02-15T17:33:53;8.00;92.60
45012;DHT22;63444;48.148;11.542;2023-02-15T17:36:22;7.90;92.80
45012;DHT22;63444;48.148;11.542;2023-02-15T17:41:28;7.90;93.30
45012;DHT22;63444;48.148;11.542;2023-02-15T17:43:53;7.80;93.50
45012;DHT22;63444;48.148;11.542;2023-02-15T17:46:19;7.70;93.80
45012;DHT22;63444;48.148;11.542;2023-02-15T17:48:53;7.70;94.10
45012;DHT22;63444;48.148;11.542;2023-02-15T17:51:21;7.60;94.40
45012;DHT22;63444;48.148;11.542;2023-02-15T17:53:48;7.50;94.60
45012;DHT22;63444;48.148;11.542;2023-02-15T17:56:33;7.40;94.90
45012;DHT22;63444;48.148;11.542;2023-02-15T17:58:59;7.40;95.20
45012;DHT22;63444;48.148;11.542;2023-02-15T18:01:25;7.30;95.50
45012;DHT22;63444;48.148;11.542;2023-02-15T18:04:13;7.20;95.90
45012;DHT22;63444;48.148;11.542;2023-02-15T18:06:59;7.30;96.30
45012;DHT22;63444;48.148;11.542;2023-02-15T18:09:43;7.20;96.60
45012;DHT22;63444;48.148;11.542;2023-02-15T18:12:32;7.10;97.00
45012;DHT22;63444;48.148;11.542;2023-02-15T18:14:58;7.10;97.30
45012;DHT22;63444;48.148;11.542;2023-02-15T18:17:38;7.00;97.60
45012;DHT22;63444;48.148;11.542;2023-02-15T18:22:43;6.90;98.30
45012;DHT22;63444;48.148;11.542;2023-02-15T18:25:13;6.90;98.60
45012;DHT22;63444;48.148;11.542;2023-02-15T18:27:39;6.80;98.80
45012;DHT22;63444;48.148;11.542;2023-02-15T18:30:11;6.80;99.20
45012;DHT22;63444;48.148;11.542;2023-02-15T18:32:38;6.70;99.50
45012;DHT22;63444;48.148;11.542;2023-02-15T18:35:05;6.70;99.80
45012;DHT22;63444;48.148;11.542;2023-02-15T18:37:32;6.70;99.90
45012;DHT22;63444;48.148;11.542;2023-02-15T18:39:59;6.60;99.90
45012;DHT22;63444;48.148;11.542;2023-02-15T18:42:28;6.50;99.90
45012;DHT22;63444;48.148;11.542;2023-02-15T18:44:58;6.50;99.90